KRAP/RAP METAR and TAF weather

Enter ICAO airport designator
Station Type Date Time Source
KRAP METAR 2020/04/01 23:52 UTC NOAA

KRAP 012352Z 36029G41KT 10SM OVC041 M02/M08 A2988 RMK AO2 PK WND 35041/2351 SLP146 T10171078 10078 21017 53013


Station Type Date Time Source
KRAP Decoded METAR 2020/04/01 23:52 UTC NOAA

RAPID CITY REGIONAL AIRPORT , SD, United States (KRAP) 44-03N 103-03W 965M
Apr 01, 2020 - 07:52 PM EDT / 2020.04.01 2352 UTC
Wind: from the N (360 degrees) at 33 MPH (29 KT) gusting to 47 MPH (41 KT):0
Visibility: 10 mile(s):0
Sky conditions: overcast
Temperature: 28.9 F (-1.7 C)
Windchill: 12 F (-11 C):1
Dew Point: 18.0 F (-7.8 C)
Relative Humidity: 63%
Pressure (altimeter): 29.88 in. Hg (1011 hPa)
Pressure tendency: 0.04 inches (1.3 hPa) higher than three hours ago
ob: KRAP 012352Z 36029G41KT 10SM OVC041 M02/M08 A2988 RMK AO2 PK WND 35041/2351 SLP146 T10171078 10078 21017 53013
cycle: 0

Station Type Date Time Source
KRAP TAF 2020/04/01 19:58 UTC NOAA

TAF
AMD KRAP 011857Z 0119/0218 34030G40KT P6SM VCSH BKN015
FM012100 36024G34KT P6SM -SHRA SCT015 BKN035
FM020300 35018G28KT 3/4SM -SN BKN008

Example: see airport list